Time;durP1;ratioP1;P1;durP2;ratioP2;P2;SDS_P1;SDS_P2;PMS_P1;PMS_P2;Temp;Humidity;BMP_temperature;BMP_pressure;BME280_temperature;BME280_humidity;BME280_pressure;Samples;Min_cycle;Max_cycle;Signal;HPM_P1;HPM_P2
2023/03/15 00:00:54;;;;;;;4.97;1.70;;;3.00;99.90;;;;;;5027243;28;20179;-32
2023/03/15 00:03:20;;;;;;;2.17;1.40;;;3.00;99.90;;;;;;5030228;28;20181;-33
2023/03/15 00:05:47;;;;;;;4.23;1.77;;;3.00;99.90;;;;;;5030526;28;20256;-32
2023/03/15 00:08:14;;;;;;;3.47;1.53;;;3.10;99.90;;;;;;5028986;28;20262;-31
2023/03/15 00:10:45;;;;;;;3.53;1.70;;;3.20;99.90;;;;;;5045534;28;20207;-32
2023/03/15 00:13:12;;;;;;;2.03;1.43;;;3.20;99.90;;;;;;5030247;28;20182;-31
2023/03/15 00:15:45;;;;;;;2.53;1.43;;;3.10;99.90;;;;;;5033232;28;20201;-32
2023/03/15 00:18:11;;;;;;;4.00;1.73;;;3.10;99.90;;;;;;5016346;28;20194;-31
2023/03/15 00:20:37;;;;;;;3.93;1.80;;;3.10;99.90;;;;;;5048915;28;20183;-31
2023/03/15 00:23:03;;;;;;;2.97;1.83;;;3.10;99.90;;;;;;5033906;28;20174;-32
2023/03/15 00:25:28;;;;;;;4.80;1.77;;;3.20;99.90;;;;;;5032199;28;20190;-31
2023/03/15 00:27:54;;;;;;;3.67;1.47;;;3.30;99.90;;;;;;5032377;28;20236;-32
2023/03/15 00:30:20;;;;;;;3.87;1.40;;;3.30;99.90;;;;;;5040053;28;20678;-31
2023/03/15 00:32:46;;;;;;;3.47;1.70;;;3.30;99.90;;;;;;5048565;28;20178;-31
2023/03/15 00:35:12;;;;;;;3.67;1.73;;;3.40;99.90;;;;;;5033157;28;20174;-31
2023/03/15 00:37:38;;;;;;;2.97;1.70;;;3.50;99.90;;;;;;5032374;28;20233;-32
2023/03/15 00:40:06;;;;;;;3.63;1.83;;;3.50;99.90;;;;;;5032044;28;20183;-32
2023/03/15 00:42:32;;;;;;;3.03;1.67;;;3.50;99.90;;;;;;5033124;28;20274;-31
2023/03/15 00:44:58;;;;;;;6.67;1.60;;;3.50;99.90;;;;;;5031194;28;20277;-32
2023/03/15 00:47:24;;;;;;;5.43;1.97;;;3.60;99.90;;;;;;5031940;28;20207;-32
2023/03/15 00:49:50;;;;;;;3.47;1.43;;;3.60;99.90;;;;;;5031413;28;20260;-32
2023/03/15 00:52:17;;;;;;;2.93;1.30;;;3.70;99.90;;;;;;5015040;28;20182;-32
2023/03/15 00:54:51;;;;;;;5.23;1.60;;;3.70;99.90;;;;;;5047982;28;20178;-32
2023/03/15 00:57:16;;;;;;;2.03;1.30;;;3.70;99.90;;;;;;5015529;28;20222;-32
2023/03/15 00:59:43;;;;;;;1.87;1.37;;;3.60;99.90;;;;;;5034294;28;20699;-32
2023/03/15 01:02:10;;;;;;;4.60;1.43;;;3.60;99.90;;;;;;5039171;28;20186;-32
2023/03/15 01:04:35;;;;;;;5.87;1.60;;;3.60;99.90;;;;;;5031472;28;20245;-31
2023/03/15 01:07:03;;;;;;;2.43;1.43;;;3.60;99.90;;;;;;5032788;28;20206;-32
2023/03/15 01:09:30;;;;;;;2.90;1.47;;;3.60;99.90;;;;;;5031160;28;20206;-31
2023/03/15 01:11:57;;;;;;;4.43;1.60;;;3.50;99.90;;;;;;5031524;28;20237;-32
2023/03/15 01:14:22;;;;;;;4.07;1.37;;;3.50;99.90;;;;;;5014695;28;20706;-32
2023/03/15 01:16:48;;;;;;;5.13;1.80;;;3.50;99.90;;;;;;5031272;28;20285;-31
2023/03/15 01:19:14;;;;;;;2.17;1.43;;;3.40;99.90;;;;;;5031322;28;20245;-32
2023/03/15 01:21:40;;;;;;;2.57;1.30;;;3.40;99.90;;;;;;5031474;28;20182;-31
2023/03/15 01:24:10;;;;;;;5.67;1.80;;;3.40;99.90;;;;;;5031151;28;20366;-32
2023/03/15 01:26:36;;;;;;;2.40;1.27;;;3.40;99.90;;;;;;5047642;28;20205;-32
2023/03/15 01:29:02;;;;;;;5.90;1.73;;;3.40;99.90;;;;;;5031124;28;20554;-31
2023/03/15 01:31:29;;;;;;;4.00;1.43;;;3.40;99.90;;;;;;5023810;28;20253;-30
2023/03/15 01:33:56;;;;;;;4.00;1.40;;;3.40;99.90;;;;;;5030658;28;20607;-31
2023/03/15 01:36:22;;;;;;;5.00;1.50;;;3.40;99.90;;;;;;5047108;28;20298;-31
2023/03/15 01:38:48;;;;;;;5.17;1.70;;;3.40;99.90;;;;;;5030602;28;20296;-31
2023/03/15 01:41:17;;;;;;;3.53;1.67;;;3.30;99.90;;;;;;5014606;28;20179;-31
2023/03/15 01:43:47;;;;;;;5.17;1.53;;;3.30;99.90;;;;;;5030456;28;20184;-31
2023/03/15 01:46:23;;;;;;;2.37;1.20;;;3.20;99.90;;;;;;5029402;28;20190;-31
2023/03/15 01:49:22;;;;;;;2.23;1.90;;;3.20;99.90;;;;;;5031178;28;20240;-31
2023/03/15 01:52:01;;;;;;;4.83;2.03;;;3.20;99.90;;;;;;5047734;28;20187;-31
2023/03/15 01:54:56;;;;;;;3.80;1.63;;;3.10;99.90;;;;;;5010692;28;20198;-31
2023/03/15 01:57:38;;;;;;;3.70;1.60;;;3.20;99.90;;;;;;4999589;28;20214;-31
2023/03/15 02:00:13;;;;;;;4.83;1.60;;;3.10;99.90;;;;;;5034997;28;20193;-31
2023/03/15 02:02:50;;;;;;;3.97;1.70;;;3.10;99.90;;;;;;5018479;28;20205;-30
2023/03/15 02:05:25;;;;;;;3.73;1.40;;;3.00;99.90;;;;;;5014646;28;20210;-31
2023/03/15 02:07:53;;;;;;;3.60;1.77;;;3.00;99.90;;;;;;5030437;28;20685;-31
2023/03/15 02:10:35;;;;;;;4.20;1.63;;;3.00;99.90;;;;;;5030274;28;20208;-31
2023/03/15 02:13:02;;;;;;;3.03;1.43;;;3.00;99.90;;;;;;5030397;28;20206;-30
2023/03/15 02:15:30;;;;;;;5.70;1.53;;;3.00;99.90;;;;;;5030009;28;20171;-31
2023/03/15 02:17:56;;;;;;;2.90;1.60;;;3.00;99.90;;;;;;5029943;28;20189;-30
2023/03/15 02:20:29;;;;;;;3.20;1.50;;;2.90;99.90;;;;;;5046928;28;20179;-30
2023/03/15 02:22:57;;;;;;;3.83;1.60;;;2.90;99.90;;;;;;5013050;28;20241;-30
2023/03/15 02:25:29;;;;;;;4.33;1.50;;;2.80;99.90;;;;;;5046066;28;20177;-30
2023/03/15 02:27:56;;;;;;;5.53;1.40;;;2.70;99.90;;;;;;5030064;28;20183;-30
2023/03/15 02:30:22;;;;;;;4.03;1.50;;;2.60;99.90;;;;;;5033207;28;20218;-31
2023/03/15 02:32:48;;;;;;;3.33;1.33;;;2.50;99.90;;;;;;5052414;28;20185;-31
2023/03/15 02:35:24;;;;;;;5.03;1.47;;;2.40;99.90;;;;;;5029619;28;20174;-30
2023/03/15 02:37:51;;;;;;;3.77;1.30;;;2.40;99.90;;;;;;5029519;28;20190;-31
2023/03/15 02:40:19;;;;;;;3.27;1.50;;;2.40;99.90;;;;;;5046157;28;20182;-31
2023/03/15 02:42:47;;;;;;;2.37;1.23;;;2.30;99.90;;;;;;5029684;28;20185;-30
2023/03/15 02:45:13;;;;;;;2.93;1.37;;;2.30;99.90;;;;;;5030749;28;20547;-30
2023/03/15 02:47:39;;;;;;;3.83;1.50;;;2.30;99.90;;;;;;5029989;28;20236;-31
2023/03/15 02:50:07;;;;;;;3.17;1.50;;;2.30;99.90;;;;;;5046239;28;20190;-30
2023/03/15 02:52:33;;;;;;;3.10;1.13;;;2.30;99.90;;;;;;5029892;28;20178;-30
2023/03/15 02:55:01;;;;;;;4.30;1.43;;;2.30;99.90;;;;;;5029112;28;20184;-31
2023/03/15 02:57:28;;;;;;;3.23;1.40;;;2.30;99.90;;;;;;5028714;28;20193;-30
2023/03/15 02:59:55;;;;;;;6.20;1.77;;;2.30;99.90;;;;;;5035414;28;20188;-31
2023/03/15 03:02:22;;;;;;;3.03;1.63;;;2.30;99.90;;;;;;5032998;28;20212;-30
2023/03/15 03:04:48;;;;;;;4.57;1.80;;;2.30;99.90;;;;;;5029525;28;20188;-30
2023/03/15 03:07:15;;;;;;;7.70;1.67;;;2.30;99.90;;;;;;5013466;28;20214;-30
2023/03/15 03:09:51;;;;;;;4.13;1.67;;;2.20;99.90;;;;;;5044652;28;20259;-30
2023/03/15 03:12:18;;;;;;;2.97;1.67;;;2.20;99.90;;;;;;5029241;28;20178;-30
2023/03/15 03:14:44;;;;;;;5.07;2.43;;;2.10;99.90;;;;;;5045525;28;20182;-31
2023/03/15 03:17:14;;;;;;;3.47;1.50;;;2.00;99.90;;;;;;5029424;28;20296;-30
2023/03/15 03:19:41;;;;;;;7.50;1.70;;;2.00;99.90;;;;;;5029129;28;20197;-30
2023/03/15 03:22:07;;;;;;;4.60;1.70;;;1.90;99.90;;;;;;5028927;28;20259;-31
2023/03/15 03:24:33;;;;;;;6.87;1.80;;;1.90;99.90;;;;;;5045637;28;20182;-30
2023/03/15 03:26:59;;;;;;;7.77;1.67;;;1.90;99.90;;;;;;5045885;28;20220;-30
2023/03/15 03:29:29;;;;;;;3.93;1.70;;;2.00;99.90;;;;;;5048127;28;20207;-31
2023/03/15 03:31:59;;;;;;;5.33;2.20;;;2.00;99.90;;;;;;5043250;28;20173;-30
2023/03/15 03:34:25;;;;;;;3.03;1.50;;;1.80;99.90;;;;;;5019138;28;20177;-30
2023/03/15 03:36:51;;;;;;;4.30;2.07;;;1.70;99.90;;;;;;5028975;28;20210;-30
2023/03/15 03:39:26;;;;;;;4.13;1.60;;;1.70;99.90;;;;;;5013188;28;20216;-30
2023/03/15 03:41:52;;;;;;;2.43;1.40;;;1.60;99.90;;;;;;5029284;28;20185;-30
2023/03/15 03:44:18;;;;;;;4.13;1.70;;;1.70;99.90;;;;;;5028783;28;20232;-30
2023/03/15 03:46:44;;;;;;;5.00;1.83;;;1.70;99.90;;;;;;5028937;28;20277;-30
2023/03/15 03:49:13;;;;;;;4.23;2.00;;;1.80;99.90;;;;;;5047864;28;20186;-31
2023/03/15 03:51:40;;;;;;;7.17;2.33;;;1.80;99.90;;;;;;5032582;28;20616;-31
2023/03/15 03:54:06;;;;;;;4.00;1.90;;;1.80;99.90;;;;;;5048982;28;20193;-31
2023/03/15 03:56:32;;;;;;;2.70;1.50;;;1.80;99.90;;;;;;5032997;28;20208;-31
2023/03/15 03:58:58;;;;;;;5.63;2.13;;;1.80;99.90;;;;;;5032797;28;20177;-31
2023/03/15 04:01:34;;;;;;;6.97;2.30;;;1.80;99.90;;;;;;5036848;28;20542;-31
2023/03/15 04:04:00;;;;;;;4.87;1.73;;;1.70;99.90;;;;;;5045465;28;20189;-32
2023/03/15 04:06:27;;;;;;;4.73;1.97;;;1.70;99.90;;;;;;5032991;28;20198;-31
2023/03/15 04:08:52;;;;;;;6.47;1.73;;;1.70;99.90;;;;;;5032486;28;20175;-31
2023/03/15 04:11:25;;;;;;;2.23;1.70;;;1.70;99.90;;;;;;5032423;28;20207;-31
2023/03/15 04:13:55;;;;;;;2.40;1.87;;;1.70;99.90;;;;;;5032146;28;20193;-31
2023/03/15 04:16:23;;;;;;;4.83;1.93;;;1.60;99.90;;;;;;5015958;28;20202;-31
2023/03/15 04:18:57;;;;;;;8.53;2.20;;;1.50;99.90;;;;;;5016917;28;20177;-31
2023/03/15 04:21:24;;;;;;;3.33;1.80;;;1.40;99.90;;;;;;5032336;28;20178;-31
2023/03/15 04:23:54;;;;;;;5.87;1.90;;;1.30;99.90;;;;;;5031850;28;20280;-31
2023/03/15 04:26:49;;;;;;;4.07;2.20;;;1.20;99.90;;;;;;5023189;28;20198;-31
2023/03/15 04:29:38;;;;;;;3.70;2.23;;;1.20;99.90;;;;;;5026701;28;20208;-31
2023/03/15 04:32:24;;;;;;;4.17;1.80;;;1.10;99.90;;;;;;5040221;28;20235;-30
2023/03/15 04:35:01;;;;;;;8.57;2.53;;;1.10;99.90;;;;;;5030337;28;20177;-31
2023/03/15 04:37:50;;;;;;;2.73;1.83;;;1.10;99.90;;;;;;5016606;28;20185;-31
2023/03/15 04:40:28;;;;;;;4.47;2.07;;;1.20;99.90;;;;;;5016707;28;20183;-31
2023/03/15 04:43:10;;;;;;;4.90;2.23;;;1.20;99.90;;;;;;5011552;28;20665;-30
2023/03/15 04:45:51;;;;;;;3.33;2.10;;;1.30;99.90;;;;;;5030325;28;20721;-31
2023/03/15 04:48:30;;;;;;;4.53;2.60;;;1.40;99.90;;;;;;5026400;28;20188;-31
2023/03/15 04:51:19;;;;;;;4.37;2.20;;;1.40;99.90;;;;;;5021460;28;20227;-31
2023/03/15 04:54:07;;;;;;;4.37;2.67;;;1.40;99.90;;;;;;5025097;28;20190;-31
2023/03/15 04:56:56;;;;;;;4.50;2.77;;;1.40;99.90;;;;;;5018170;28;20209;-30
2023/03/15 04:59:50;;;;;;;4.20;2.50;;;1.40;99.90;;;;;;5024625;28;20181;-31
2023/03/15 05:02:38;;;;;;;4.90;2.53;;;1.40;99.90;;;;;;5039701;28;20707;-31
2023/03/15 05:05:28;;;;;;;4.70;2.50;;;1.40;99.90;;;;;;5031576;28;20275;-30
2023/03/15 05:08:12;;;;;;;5.43;2.50;;;1.30;99.90;;;;;;5046611;28;20239;-30
2023/03/15 05:10:56;;;;;;;4.63;2.27;;;1.20;99.90;;;;;;5043678;28;20709;-31
2023/03/15 05:13:48;;;;;;;5.17;2.77;;;1.20;99.90;;;;;;5008661;28;20190;-30
2023/03/15 05:16:34;;;;;;;3.60;2.40;;;1.10;99.90;;;;;;5047998;28;20243;-30
2023/03/15 05:19:11;;;;;;;5.20;3.10;;;1.10;99.90;;;;;;5031530;28;20252;-30
2023/03/15 05:22:02;;;;;;;8.33;2.87;;;1.00;99.90;;;;;;5011584;28;20190;-30
2023/03/15 05:24:50;;;;;;;34.10;18.73;;;1.00;99.90;;;;;;5017265;28;20180;-31
2023/03/15 05:27:24;;;;;;;28.57;14.83;;;0.90;99.90;;;;;;5023175;28;20206;-30
2023/03/15 05:30:06;;;;;;;17.93;10.23;;;0.90;99.90;;;;;;5037702;28;20239;-31
2023/03/15 05:33:03;;;;;;;12.97;7.90;;;0.90;99.90;;;;;;5035062;28;20255;-30
2023/03/15 05:36:02;;;;;;;8.20;5.27;;;1.00;99.90;;;;;;4998803;28;20221;-30
2023/03/15 05:38:52;;;;;;;7.47;4.00;;;1.00;99.90;;;;;;5030625;28;20233;-31
2023/03/15 05:41:24;;;;;;;9.83;4.87;;;1.00;99.90;;;;;;5046480;28;20189;-30
2023/03/15 05:44:04;;;;;;;8.20;4.10;;;1.00;99.90;;;;;;5030268;28;20181;-30
2023/03/15 05:46:41;;;;;;;10.03;5.13;;;0.90;99.90;;;;;;5031019;28;20209;-30
2023/03/15 05:49:10;;;;;;;8.57;3.70;;;0.90;99.90;;;;;;5030738;28;20189;-30
2023/03/15 05:51:46;;;;;;;10.33;4.10;;;0.90;99.90;;;;;;5030773;28;20186;-30
2023/03/15 05:54:22;;;;;;;7.60;3.90;;;0.90;99.90;;;;;;5030198;28;20172;-30
2023/03/15 05:56:59;;;;;;;4.43;3.07;;;0.90;99.90;;;;;;5015534;28;20306;-30
2023/03/15 05:59:54;;;;;;;7.00;3.53;;;0.90;99.90;;;;;;5018626;28;20281;-30
2023/03/15 06:02:44;;;;;;;7.97;4.73;;;0.80;99.90;;;;;;5031927;28;20193;-30
2023/03/15 06:05:35;;;;;;;7.17;3.43;;;0.80;99.90;;;;;;5028869;28;20202;-30
2023/03/15 06:08:04;;;;;;;12.13;3.67;;;0.80;99.90;;;;;;5031069;28;20195;-31
2023/03/15 06:10:32;;;;;;;7.07;3.13;;;0.90;99.90;;;;;;5030324;28;20292;-30
2023/03/15 06:13:04;;;;;;;7.50;3.30;;;1.00;99.90;;;;;;5032396;28;20187;-29
2023/03/15 06:15:31;;;;;;;7.90;3.40;;;1.10;99.90;;;;;;5015931;28;20199;-30
2023/03/15 06:17:57;;;;;;;5.60;3.23;;;1.20;99.90;;;;;;5032448;28;20184;-29
2023/03/15 06:20:23;;;;;;;10.27;4.10;;;1.20;99.90;;;;;;5032403;28;20177;-29
2023/03/15 06:22:49;;;;;;;10.67;4.53;;;1.30;99.90;;;;;;5030849;28;20188;-30
2023/03/15 06:25:26;;;;;;;8.80;4.57;;;1.40;99.90;;;;;;5029772;28;20197;-29
2023/03/15 06:27:52;;;;;;;6.77;4.07;;;1.40;99.90;;;;;;5030037;28;20178;-30
2023/03/15 06:30:19;;;;;;;6.50;3.90;;;1.50;99.90;;;;;;5053696;28;20262;-30
2023/03/15 06:32:50;;;;;;;12.00;5.93;;;1.60;99.90;;;;;;5030896;28;20200;-30
2023/03/15 06:35:16;;;;;;;7.30;4.13;;;1.60;99.90;;;;;;5021780;28;20178;-30
2023/03/15 06:37:42;;;;;;;7.13;4.00;;;1.70;99.90;;;;;;5039353;28;20181;-30
2023/03/15 06:40:10;;;;;;;8.00;3.70;;;1.70;99.90;;;;;;5021035;28;20206;-30
2023/03/15 06:42:36;;;;;;;8.57;3.60;;;1.70;99.90;;;;;;5041791;28;20186;-30
2023/03/15 06:45:05;;;;;;;6.80;3.47;;;1.80;99.90;;;;;;5033357;28;20652;-30
2023/03/15 06:47:31;;;;;;;6.47;4.07;;;1.80;99.90;;;;;;5031693;28;20216;-30
2023/03/15 06:49:57;;;;;;;9.00;4.10;;;1.90;99.90;;;;;;5020551;28;20228;-30
2023/03/15 06:52:23;;;;;;;7.37;3.90;;;2.00;99.90;;;;;;5053923;28;20647;-30
2023/03/15 06:54:49;;;;;;;9.30;4.47;;;2.00;99.90;;;;;;5024192;28;20174;-30
2023/03/15 06:57:15;;;;;;;8.07;3.70;;;2.00;99.90;;;;;;5034832;28;20265;-30
2023/03/15 06:59:42;;;;;;;6.03;3.57;;;2.10;99.90;;;;;;5041136;28;20209;-30
2023/03/15 07:02:16;;;;;;;6.73;3.47;;;2.10;99.90;;;;;;5036245;28;20190;-29
2023/03/15 07:04:45;;;;;;;6.20;3.50;;;2.10;99.90;;;;;;5066373;28;20265;-30
2023/03/15 07:07:11;;;;;;;6.70;4.70;;;2.10;99.90;;;;;;5049844;28;20220;-28
2023/03/15 07:09:38;;;;;;;10.10;5.03;;;2.20;99.90;;;;;;5051080;28;20205;-30
2023/03/15 07:12:04;;;;;;;12.47;4.67;;;2.30;99.90;;;;;;5051106;28;20181;-30
2023/03/15 07:14:29;;;;;;;6.83;3.40;;;2.40;99.90;;;;;;5049599;28;20261;-29
2023/03/15 07:16:55;;;;;;;5.57;3.80;;;2.40;99.90;;;;;;5051073;28;20288;-29
2023/03/15 07:19:21;;;;;;;7.83;4.70;;;2.50;99.90;;;;;;5050860;28;20162;-29
2023/03/15 07:21:47;;;;;;;7.73;3.40;;;2.60;99.90;;;;;;5051251;28;20208;-30
2023/03/15 07:24:13;;;;;;;6.10;3.67;;;2.70;99.90;;;;;;5054851;28;20185;-30
2023/03/15 07:26:38;;;;;;;4.57;3.20;;;2.70;99.90;;;;;;5054796;28;20254;-30
2023/03/15 07:29:04;;;;;;;5.10;3.00;;;2.80;99.90;;;;;;5070037;28;20173;-29
2023/03/15 07:31:30;;;;;;;5.57;2.60;;;2.90;99.90;;;;;;5041656;28;20230;-30
2023/03/15 07:33:56;;;;;;;6.00;3.40;;;2.90;99.90;;;;;;5033339;28;20174;-29
2023/03/15 07:36:22;;;;;;;8.53;3.20;;;3.00;99.90;;;;;;5049061;28;20217;-29
2023/03/15 07:38:48;;;;;;;9.00;4.23;;;3.10;99.90;;;;;;5032091;28;20187;-30
2023/03/15 07:41:14;;;;;;;9.07;4.50;;;3.20;99.90;;;;;;5031898;28;20179;-30
2023/03/15 07:43:51;;;;;;;12.47;5.13;;;3.30;99.90;;;;;;5032612;28;20550;-30
2023/03/15 07:46:17;;;;;;;9.03;5.40;;;3.30;99.90;;;;;;5033003;28;20207;-30
2023/03/15 07:48:46;;;;;;;7.43;2.83;;;3.30;99.90;;;;;;5034228;28;20195;-30
2023/03/15 07:51:11;;;;;;;7.37;2.70;;;3.30;99.90;;;;;;5027691;28;20210;-30
2023/03/15 07:53:37;;;;;;;6.87;2.67;;;3.40;99.90;;;;;;5032100;28;20183;-30
2023/03/15 07:56:05;;;;;;;4.13;2.60;;;3.50;99.90;;;;;;5033023;28;20213;-30
2023/03/15 07:58:31;;;;;;;6.77;3.30;;;3.50;99.90;;;;;;5043678;28;20179;-31
2023/03/15 08:00:57;;;;;;;6.00;2.70;;;3.60;99.90;;;;;;5035008;28;20186;-31
2023/03/15 08:03:25;;;;;;;6.70;3.03;;;3.60;99.90;;;;;;5023443;28;20183;-31
2023/03/15 08:05:52;;;;;;;5.83;2.77;;;3.80;99.90;;;;;;5032471;28;20211;-30
2023/03/15 08:08:18;;;;;;;7.17;2.83;;;3.80;99.90;;;;;;5015594;28;20258;-31
2023/03/15 08:10:45;;;;;;;6.30;3.03;;;3.80;99.90;;;;;;5013029;28;20223;-31
2023/03/15 08:13:11;;;;;;;7.87;3.20;;;3.90;99.90;;;;;;5029835;28;20190;-31
2023/03/15 08:15:38;;;;;;;6.57;2.93;;;4.10;99.90;;;;;;5024005;28;20219;-31
2023/03/15 08:18:05;;;;;;;6.90;2.77;;;4.10;99.90;;;;;;5031425;28;20202;-31
2023/03/15 08:20:32;;;;;;;8.30;3.40;;;4.20;99.90;;;;;;5029502;28;20218;-31
2023/03/15 08:22:59;;;;;;;7.37;3.27;;;4.30;99.90;;;;;;5033350;28;20187;-31
2023/03/15 08:25:26;;;;;;;6.53;3.00;;;4.40;99.90;;;;;;5033367;28;20270;-31
2023/03/15 08:27:54;;;;;;;7.37;2.40;;;4.60;99.90;;;;;;5031372;28;20186;-31
2023/03/15 08:30:20;;;;;;;6.00;2.63;;;4.70;99.90;;;;;;5039263;28;20244;-31
2023/03/15 08:32:50;;;;;;;5.97;2.93;;;4.80;99.90;;;;;;5040872;28;20174;-31
2023/03/15 08:35:17;;;;;;;6.43;3.20;;;4.90;99.90;;;;;;5027753;28;20194;-31
2023/03/15 08:37:46;;;;;;;9.47;3.57;;;5.00;99.90;;;;;;5015582;28;20198;-31
2023/03/15 08:40:17;;;;;;;5.40;2.37;;;5.10;99.90;;;;;;5032327;28;20179;-31
2023/03/15 08:42:44;;;;;;;5.70;2.27;;;5.10;99.90;;;;;;5033166;28;20187;-31
2023/03/15 08:45:10;;;;;;;6.07;2.17;;;5.30;99.90;;;;;;5031381;28;20178;-29
2023/03/15 08:47:37;;;;;;;6.17;2.60;;;5.30;99.90;;;;;;5047873;28;20192;-29
2023/03/15 08:50:06;;;;;;;3.57;2.10;;;5.40;99.90;;;;;;5032793;28;20249;-29
2023/03/15 08:52:32;;;;;;;10.17;2.70;;;5.60;99.90;;;;;;5031741;28;20183;-30
2023/03/15 08:54:58;;;;;;;5.27;2.43;;;5.60;99.90;;;;;;5033129;28;20180;-30
2023/03/15 08:57:24;;;;;;;5.13;2.43;;;5.70;99.90;;;;;;5048228;28;20305;-31
2023/03/15 08:59:51;;;;;;;4.30;2.27;;;5.70;99.90;;;;;;5049164;28;20190;-30
2023/03/15 09:02:17;;;;;;;5.27;2.13;;;5.80;99.90;;;;;;5025935;28;20192;-30
2023/03/15 09:04:43;;;;;;;5.20;1.90;;;5.80;99.90;;;;;;5047767;28;20179;-30
2023/03/15 09:07:11;;;;;;;4.63;1.70;;;5.90;99.90;;;;;;5031575;28;20691;-31
2023/03/15 09:09:37;;;;;;;5.07;1.90;;;5.90;99.90;;;;;;5047749;28;20191;-31
2023/03/15 09:12:03;;;;;;;2.40;1.60;;;6.00;99.90;;;;;;5031617;28;20237;-31
2023/03/15 09:14:29;;;;;;;2.97;1.70;;;6.00;99.90;;;;;;5009238;28;20179;-30
2023/03/15 09:16:54;;;;;;;3.70;1.60;;;5.80;99.90;;;;;;5026984;28;20255;-29
2023/03/15 09:19:20;;;;;;;4.53;1.70;;;5.90;99.90;;;;;;5023322;28;20292;-30
2023/03/15 09:21:46;;;;;;;3.17;1.60;;;5.90;99.90;;;;;;5045354;28;20188;-31
2023/03/15 09:24:12;;;;;;;1.87;1.20;;;5.90;99.90;;;;;;5045714;28;20175;-29
2023/03/15 09:26:38;;;;;;;3.10;1.33;;;5.90;99.90;;;;;;5032080;28;20210;-31
2023/03/15 09:29:04;;;;;;;4.83;1.47;;;6.00;99.90;;;;;;5024760;28;20189;-30
2023/03/15 09:31:31;;;;;;;3.40;1.80;;;6.00;99.90;;;;;;5046171;28;20266;-32
2023/03/15 09:33:57;;;;;;;3.17;1.60;;;6.00;99.90;;;;;;5031152;28;20182;-31
2023/03/15 09:36:23;;;;;;;5.63;2.07;;;5.90;99.90;;;;;;5032407;28;20235;-31
2023/03/15 09:38:49;;;;;;;2.67;1.77;;;5.80;99.90;;;;;;5030410;28;20183;-31
2023/03/15 09:41:33;;;;;;;4.23;1.70;;;5.80;99.90;;;;;;5031793;28;20177;-31
2023/03/15 09:44:06;;;;;;;3.30;1.60;;;5.80;99.90;;;;;;5047627;28;20187;-31
2023/03/15 09:46:49;;;;;;;4.33;1.60;;;5.80;99.90;;;;;;5047505;28;20282;-31
2023/03/15 09:49:32;;;;;;;3.37;1.47;;;5.70;99.90;;;;;;5032300;28;20168;-32
2023/03/15 09:52:23;;;;;;;4.90;1.43;;;5.70;99.90;;;;;;5032176;28;20191;-31
2023/03/15 09:55:12;;;;;;;3.77;1.60;;;5.80;99.90;;;;;;5047861;28;20668;-31
2023/03/15 09:57:40;;;;;;;3.10;1.20;;;5.90;99.90;;;;;;5029556;28;20263;-31
2023/03/15 10:00:12;;;;;;;1.90;1.60;;;6.00;99.90;;;;;;5039966;28;20221;-30
2023/03/15 10:02:45;;;;;;;2.70;1.60;;;6.10;99.90;;;;;;5053292;28;20188;-32
2023/03/15 10:05:18;;;;;;;5.53;1.30;;;6.40;99.90;;;;;;5052045;28;20199;-31
2023/03/15 10:07:45;;;;;;;3.53;1.30;;;6.70;99.90;;;;;;5037508;28;20188;-31
2023/03/15 10:10:20;;;;;;;5.27;1.50;;;6.90;99.90;;;;;;5046678;28;20246;-31
2023/03/15 10:12:56;;;;;;;7.17;1.67;;;7.00;99.90;;;;;;5030465;28;20177;-30
2023/03/15 10:15:44;;;;;;;3.07;1.37;;;7.20;99.90;;;;;;5030299;28;20654;-31
2023/03/15 10:18:37;;;;;;;2.83;1.40;;;7.40;99.90;;;;;;5030586;28;20177;-31
2023/03/15 10:21:24;;;;;;;2.37;1.20;;;7.50;99.90;;;;;;5031397;28;20184;-31
2023/03/15 10:23:53;;;;;;;3.73;1.13;;;7.60;99.90;;;;;;5046988;28;20208;-30
2023/03/15 10:26:26;;;;;;;6.30;1.33;;;7.60;99.90;;;;;;5029791;28;20205;-32
2023/03/15 10:28:52;;;;;;;2.00;1.00;;;7.50;99.90;;;;;;5030195;28;20217;-31
2023/03/15 10:31:24;;;;;;;2.47;1.17;;;7.50;99.90;;;;;;5056384;28;20279;-31
2023/03/15 10:33:50;;;;;;;3.30;1.17;;;7.50;99.90;;;;;;5051367;28;20185;-31
2023/03/15 10:36:19;;;;;;;1.70;0.90;;;7.70;99.90;;;;;;5061594;28;20208;-31
2023/03/15 10:38:47;;;;;;;2.83;1.03;;;7.60;99.90;;;;;;5013930;28;20182;-32
2023/03/15 10:41:27;;;;;;;2.97;1.00;;;7.70;99.90;;;;;;5029697;28;20273;-31
2023/03/15 10:44:02;;;;;;;2.60;1.00;;;7.70;99.90;;;;;;5027877;28;20243;-30
2023/03/15 10:46:28;;;;;;;3.27;1.00;;;7.80;99.90;;;;;;5029926;28;20292;-31
2023/03/15 10:49:06;;;;;;;3.37;1.17;;;7.90;99.90;;;;;;5020872;28;20406;-29
2023/03/15 10:51:46;;;;;;;2.83;1.10;;;7.80;99.90;;;;;;5017198;28;20336;-30
2023/03/15 10:54:21;;;;;;;2.97;1.07;;;7.90;99.90;;;;;;5031341;28;20184;-30
2023/03/15 10:56:50;;;;;;;2.87;1.00;;;7.90;99.90;;;;;;5029444;28;20193;-29
2023/03/15 10:59:23;;;;;;;2.23;1.17;;;7.90;99.90;;;;;;5032395;28;20212;-30
2023/03/15 11:01:52;;;;;;;2.73;1.20;;;8.00;99.90;;;;;;5041805;28;20189;-29
2023/03/15 11:04:22;;;;;;;1.97;1.03;;;7.90;99.90;;;;;;5029398;28;20178;-30
2023/03/15 11:06:58;;;;;;;4.37;1.40;;;7.90;99.90;;;;;;5029470;28;20219;-31
2023/03/15 11:09:26;;;;;;;3.80;0.87;;;8.10;99.90;;;;;;5046196;28;20194;-31
2023/03/15 11:12:05;;;;;;;1.97;1.03;;;8.20;99.90;;;;;;5029723;28;20212;-30
2023/03/15 11:14:37;;;;;;;3.03;1.10;;;7.90;99.90;;;;;;5030739;28;20623;-30
2023/03/15 11:17:05;;;;;;;1.57;0.90;;;7.50;99.90;;;;;;5030928;28;20359;-30
2023/03/15 11:19:35;;;;;;;4.03;1.20;;;7.40;99.90;;;;;;5028693;28;20182;-29
2023/03/15 11:22:02;;;;;;;2.50;1.00;;;7.40;99.90;;;;;;5012908;28;20272;-30
2023/03/15 11:24:30;;;;;;;2.47;1.00;;;7.60;99.90;;;;;;5029440;28;20316;-29
2023/03/15 11:27:08;;;;;;;2.23;1.07;;;7.70;99.90;;;;;;5029633;28;20277;-30
2023/03/15 11:29:36;;;;;;;4.43;1.30;;;7.70;99.90;;;;;;5032854;28;20173;-31
2023/03/15 11:32:20;;;;;;;3.60;0.87;;;7.70;99.90;;;;;;5037590;28;20246;-31
2023/03/15 11:35:01;;;;;;;3.50;1.17;;;7.70;99.90;;;;;;5039927;28;20169;-30
2023/03/15 11:37:40;;;;;;;1.53;0.97;;;7.70;99.90;;;;;;5024652;28;20209;-31
2023/03/15 11:40:17;;;;;;;6.43;1.40;;;7.70;99.90;;;;;;5027972;28;20238;-30
2023/03/15 11:43:05;;;;;;;2.17;1.00;;;7.70;99.90;;;;;;5025497;28;20213;-30
2023/03/15 11:45:43;;;;;;;0.70;0.67;;;7.90;99.90;;;;;;5030505;28;20181;-30
2023/03/15 11:49:12;;;;;;;3.43;1.10;;;8.00;99.90;;;;;;5023363;28;20190;-30
2023/03/15 11:51:38;;;;;;;2.57;1.00;;;8.10;99.90;;;;;;5043455;28;20199;-30
2023/03/15 11:54:11;;;;;;;1.93;1.00;;;8.20;99.90;;;;;;5030071;28;20186;-29
2023/03/15 11:56:43;;;;;;;1.27;0.90;;;8.30;99.90;;;;;;5038333;28;20203;-31
2023/03/15 11:59:12;;;;;;;1.30;1.00;;;8.30;99.90;;;;;;5022776;28;20175;-31
2023/03/15 12:01:59;;;;;;;4.23;1.30;;;8.50;99.90;;;;;;5025527;28;20183;-30
2023/03/15 12:04:31;;;;;;;1.23;0.90;;;8.40;99.90;;;;;;5027910;28;20214;-30
2023/03/15 12:07:02;;;;;;;2.57;1.40;;;8.30;99.90;;;;;;5020245;28;20222;-30
2023/03/15 12:09:38;;;;;;;2.33;1.10;;;8.20;99.90;;;;;;5025450;28;20204;-31
2023/03/15 12:12:22;;;;;;;2.40;1.10;;;8.20;99.90;;;;;;5027366;28;20183;-30
2023/03/15 12:15:04;;;;;;;2.20;0.97;;;8.20;99.90;;;;;;5048123;28;20179;-30
2023/03/15 12:17:29;;;;;;;1.77;1.10;;;8.30;99.90;;;;;;5043322;28;20224;-31
2023/03/15 12:20:17;;;;;;;1.90;1.00;;;8.20;99.90;;;;;;5039727;28;20210;-30
2023/03/15 12:22:51;;;;;;;3.97;1.23;;;8.00;99.90;;;;;;5023949;28;20189;-30
2023/03/15 12:25:36;;;;;;;2.97;1.00;;;8.10;99.90;;;;;;5028229;28;20192;-30
2023/03/15 12:28:22;;;;;;;2.20;1.10;;;8.10;99.90;;;;;;5035810;28;20197;-31
2023/03/15 12:30:55;;;;;;;2.07;0.90;;;8.10;99.90;;;;;;5025129;28;20321;-31
2023/03/15 12:33:24;;;;;;;2.57;1.20;;;8.20;99.90;;;;;;5047396;28;20186;-31
2023/03/15 12:35:50;;;;;;;1.70;1.10;;;8.40;99.90;;;;;;5034766;28;20206;-30
2023/03/15 12:38:23;;;;;;;1.03;0.80;;;8.70;99.90;;;;;;5033238;28;20175;-30
2023/03/15 12:40:54;;;;;;;2.83;0.87;;;9.00;99.90;;;;;;5030067;28;20186;-31
2023/03/15 12:43:45;;;;;;;1.70;0.90;;;9.50;99.90;;;;;;5041876;28;20194;-31
2023/03/15 12:46:44;;;;;;;1.70;0.90;;;9.90;99.90;;;;;;5046061;28;20344;-31
2023/03/15 12:49:27;;;;;;;1.50;1.00;;;10.10;99.90;;;;;;4988459;28;20223;-31
2023/03/15 12:51:54;;;;;;;5.33;0.90;;;9.90;99.90;;;;;;5029362;28;20238;-31
2023/03/15 12:54:23;;;;;;;1.97;0.90;;;10.10;99.90;;;;;;5028449;28;20270;-31
2023/03/15 12:56:56;;;;;;;2.40;0.80;;;9.90;99.90;;;;;;5047221;28;20207;-31
2023/03/15 12:59:22;;;;;;;1.53;1.00;;;9.60;99.90;;;;;;5034679;28;20174;-30
2023/03/15 13:01:50;;;;;;;1.93;0.90;;;9.40;99.90;;;;;;5013194;28;20238;-31
2023/03/15 13:04:17;;;;;;;1.20;0.93;;;9.30;99.90;;;;;;5042604;28;20183;-31
2023/03/15 13:07:03;;;;;;;1.30;0.90;;;9.20;99.90;;;;;;5013460;28;20203;-31
2023/03/15 13:10:00;;;;;;;1.77;1.00;;;9.30;99.90;;;;;;5026792;28;20171;-31
2023/03/15 13:12:35;;;;;;;1.43;1.20;;;9.40;99.90;;;;;;5023516;28;20243;-30
2023/03/15 13:15:07;;;;;;;1.97;1.20;;;9.60;99.90;;;;;;5029503;28;20201;-30
2023/03/15 13:17:56;;;;;;;1.57;1.00;;;9.40;99.90;;;;;;5031048;28;20202;-31
2023/03/15 13:20:37;;;;;;;2.53;1.00;;;9.30;99.90;;;;;;5018660;28;20182;-31